Terminal Aerodrome Forecast
Issued by NWS

Home | Current Version | Previous Version | Text Only | Print | Product List | Glossary On
Versions: 1 2 3 4 5 6 7 8 9 10 11 12 13 14 15 16 17 18 19
112
FTUS42 KTBW 291446 AAA
TAFPGD
TAF AMD
KPGD 291446Z 2915/3012 14005KT P6SM SCT035
      TEMPO 2915/2916 VRB15G25KT 4SM TSRA BKN025CB
     FM291900 25008KT P6SM VCTS SCT050CB
     FM300000 28006KT P6SM SCT040=

USA.gov is the U.S. government's official web portal to all federal, state and local government web resources and services.